createdAt,value
2023-05-01T00:01:43.130Z,99.00
2023-05-01T00:04:09.962Z,98.90
2023-05-01T00:06:36.727Z,99.30
2023-05-01T00:09:03.355Z,99.30
2023-05-01T00:11:29.911Z,99.20
2023-05-01T00:13:56.577Z,99.10
2023-05-01T00:16:23.341Z,99.30
2023-05-01T00:18:50.014Z,99.20
2023-05-01T00:21:16.866Z,99.60
2023-05-01T00:23:43.462Z,99.80
2023-05-01T00:26:10.063Z,99.40
2023-05-01T00:28:36.602Z,99.60
2023-05-01T00:31:03.196Z,99.80
2023-05-01T00:33:29.840Z,99.90
2023-05-01T00:35:56.798Z,99.90
2023-05-01T00:38:24.204Z,99.90
2023-05-01T00:40:50.874Z,99.90
2023-05-01T00:43:17.379Z,99.90
2023-05-01T00:45:44.265Z,99.90
2023-05-01T00:48:11.071Z,99.90
2023-05-01T00:50:37.798Z,99.90
2023-05-01T00:53:04.334Z,99.90
2023-05-01T00:55:31.006Z,99.90
2023-05-01T00:57:58.417Z,99.90
2023-05-01T01:00:25.176Z,99.90
2023-05-01T01:02:52.093Z,99.90
2023-05-01T01:05:18.735Z,99.90
2023-05-01T01:07:45.328Z,99.90
2023-05-01T01:10:11.956Z,99.90
2023-05-01T01:12:38.581Z,99.90
2023-05-01T01:15:05.641Z,99.90
2023-05-01T01:17:32.538Z,99.90
2023-05-01T01:19:59.107Z,99.90
2023-05-01T01:22:25.682Z,99.90
2023-05-01T01:24:52.299Z,99.90
2023-05-01T01:27:18.836Z,99.90
2023-05-01T01:29:45.472Z,99.90
2023-05-01T01:32:12.170Z,99.20
2023-05-01T01:34:38.748Z,99.30
2023-05-01T01:37:05.293Z,99.30
2023-05-01T01:39:31.876Z,99.30
2023-05-01T01:41:58.775Z,99.30
2023-05-01T01:44:25.409Z,99.40
2023-05-01T01:46:51.988Z,99.60
2023-05-01T01:49:20.612Z,99.50
2023-05-01T01:51:47.529Z,99.40
2023-05-01T01:54:14.182Z,99.90
2023-05-01T01:56:40.740Z,99.40
2023-05-01T01:59:07.364Z,99.90
2023-05-01T02:01:33.940Z,99.90
2023-05-01T02:04:01.092Z,99.90
2023-05-01T02:06:27.854Z,99.90
2023-05-01T02:08:54.508Z,99.90
2023-05-01T02:11:21.183Z,99.90
2023-05-01T02:13:47.855Z,99.90
2023-05-01T02:16:14.749Z,99.90
2023-05-01T02:18:41.654Z,99.90
2023-05-01T02:21:08.430Z,99.90
2023-05-01T02:23:34.998Z,99.90
2023-05-01T02:26:01.630Z,99.90
2023-05-01T02:28:28.391Z,99.90
2023-05-01T02:30:54.914Z,99.90
2023-05-01T02:33:21.441Z,99.90
2023-05-01T02:35:48.029Z,99.90
2023-05-01T02:38:15.045Z,99.90
2023-05-01T02:40:41.662Z,99.90
2023-05-01T02:43:08.244Z,99.90
2023-05-01T02:45:35.007Z,99.90
2023-05-01T02:48:01.657Z,99.90
2023-05-01T02:50:28.227Z,99.90
2023-05-01T02:52:54.771Z,99.90
2023-05-01T02:55:21.373Z,99.90
2023-05-01T02:57:48.838Z,99.90
2023-05-01T03:00:15.617Z,99.90
2023-05-01T03:02:42.347Z,99.90
2023-05-01T03:05:09.061Z,99.90
2023-05-01T03:07:35.820Z,99.90
2023-05-01T03:10:03.854Z,99.90
2023-05-01T03:12:30.480Z,99.90
2023-05-01T03:14:57.204Z,99.90
2023-05-01T03:17:24.048Z,99.90
2023-05-01T03:19:51.597Z,99.90
2023-05-01T03:22:18.303Z,99.90
2023-05-01T03:24:44.992Z,99.90
2023-05-01T03:27:11.634Z,99.90
2023-05-01T03:29:38.237Z,99.90
2023-05-01T03:32:04.797Z,99.90
2023-05-01T03:34:31.464Z,99.90
2023-05-01T03:36:58.297Z,99.90
2023-05-01T03:39:24.923Z,99.90
2023-05-01T03:41:51.449Z,99.90
2023-05-01T03:44:17.998Z,99.90
2023-05-01T03:46:44.959Z,99.90
2023-05-01T03:49:12.382Z,99.90
2023-05-01T03:51:38.914Z,99.90
2023-05-01T03:54:05.496Z,99.90
2023-05-01T03:56:35.550Z,99.90
2023-05-01T03:59:02.216Z,99.90
2023-05-01T04:01:28.762Z,99.90
2023-05-01T04:03:55.498Z,99.90
2023-05-01T04:06:22.791Z,99.90
2023-05-01T04:08:49.449Z,99.90
2023-05-01T04:11:16.095Z,99.90
2023-05-01T04:13:42.870Z,99.90
2023-05-01T04:16:09.589Z,99.90
2023-05-01T04:18:36.469Z,99.90
2023-05-01T04:21:03.644Z,99.90
2023-05-01T04:23:30.179Z,99.90
2023-05-01T04:25:56.890Z,99.90
2023-05-01T04:28:23.463Z,99.70
2023-05-01T04:30:50.314Z,99.40
2023-05-01T04:33:16.974Z,99.60
2023-05-01T04:35:43.675Z,99.30
2023-05-01T04:38:13.221Z,99.50
2023-05-01T04:40:39.810Z,99.30
2023-05-01T04:43:06.343Z,99.20
2023-05-01T04:45:32.883Z,99.20
2023-05-01T04:47:59.531Z,99.30
2023-05-01T04:50:26.741Z,99.00
2023-05-01T04:52:53.342Z,98.60
2023-05-01T04:55:19.936Z,98.60
2023-05-01T04:57:46.809Z,98.90
2023-05-01T05:00:13.442Z,98.40
2023-05-01T05:02:40.114Z,98.40
2023-05-01T05:05:07.134Z,98.50
2023-05-01T05:07:33.759Z,98.30
2023-05-01T05:10:00.435Z,98.40
2023-05-01T05:12:26.979Z,98.30
2023-05-01T05:14:53.580Z,98.20
2023-05-01T05:17:20.130Z,98.10
2023-05-01T05:19:46.680Z,97.90
2023-05-01T05:22:13.233Z,97.90
2023-05-01T05:24:39.847Z,98.00
2023-05-01T05:27:07.204Z,97.80
2023-05-01T05:29:34.999Z,97.80
2023-05-01T05:32:01.674Z,97.70
2023-05-01T05:34:28.428Z,97.70
2023-05-01T05:36:54.985Z,97.60
2023-05-01T05:39:22.277Z,97.60
2023-05-01T05:41:49.351Z,97.40
2023-05-01T05:44:16.104Z,97.50
2023-05-01T05:46:42.724Z,97.80
2023-05-01T05:49:09.549Z,97.80
2023-05-01T05:51:36.127Z,97.90
2023-05-01T05:54:02.699Z,97.70
2023-05-01T05:56:29.289Z,97.60
2023-05-01T05:59:02.882Z,97.20
2023-05-01T06:01:29.460Z,97.40
2023-05-01T06:03:56.540Z,97.50
2023-05-01T06:06:23.159Z,97.40
2023-05-01T06:08:49.792Z,97.10
2023-05-01T06:11:16.374Z,97.20
2023-05-01T06:13:43.066Z,96.90
2023-05-01T06:16:10.038Z,97.10
2023-05-01T06:18:36.641Z,97.10
2023-05-01T06:21:03.666Z,97.10
2023-05-01T06:23:31.761Z,97.10
2023-05-01T06:25:58.812Z,97.00
2023-05-01T06:28:25.641Z,96.90
2023-05-01T06:30:52.476Z,97.10
2023-05-01T06:33:19.205Z,96.70
2023-05-01T06:35:45.877Z,96.70
2023-05-01T06:38:15.033Z,96.80
2023-05-01T06:41:01.640Z,97.00
2023-05-01T06:43:30.627Z,97.00
2023-05-01T06:45:57.260Z,97.20
2023-05-01T06:48:23.861Z,96.70
2023-05-01T06:50:50.759Z,96.80
2023-05-01T06:53:17.335Z,96.80
2023-05-01T06:55:43.974Z,96.90
2023-05-01T06:58:22.794Z,97.00
2023-05-01T07:00:50.596Z,96.60
2023-05-01T07:03:17.582Z,96.60
2023-05-01T07:05:44.326Z,96.30
2023-05-01T07:08:11.114Z,96.50
2023-05-01T07:10:39.342Z,96.40
2023-05-01T07:13:08.203Z,96.50
2023-05-01T07:15:34.834Z,96.40
2023-05-01T07:18:03.169Z,96.60
2023-05-01T07:20:30.172Z,96.50
2023-05-01T07:22:56.777Z,96.80
2023-05-01T07:25:23.333Z,96.30
2023-05-01T07:27:49.883Z,96.30
2023-05-01T07:30:16.417Z,96.50
2023-05-01T07:32:42.961Z,96.10
2023-05-01T07:35:09.519Z,96.50
2023-05-01T07:37:36.084Z,95.80
2023-05-01T07:40:02.855Z,96.20
2023-05-01T07:42:29.372Z,95.60
2023-05-01T07:44:55.916Z,95.40
2023-05-01T07:47:22.854Z,95.50
2023-05-01T07:49:49.715Z,95.60
2023-05-01T07:52:16.384Z,96.20
2023-05-01T07:54:42.985Z,96.40
2023-05-01T07:57:09.561Z,96.60
2023-05-01T07:59:36.139Z,96.30
2023-05-01T08:02:03.336Z,95.70
2023-05-01T08:04:30.987Z,96.50
2023-05-01T08:06:57.781Z,96.30
2023-05-01T08:09:24.350Z,95.80
2023-05-01T08:11:50.974Z,96.10
2023-05-01T08:14:18.362Z,95.50
2023-05-01T08:16:46.162Z,95.90
2023-05-01T08:19:12.740Z,95.00
2023-05-01T08:21:39.277Z,95.30
2023-05-01T08:24:05.869Z,95.10
2023-05-01T08:26:32.457Z,95.70
2023-05-01T08:28:59.081Z,95.30
2023-05-01T08:31:25.860Z,95.70
2023-05-01T08:33:52.460Z,94.80
2023-05-01T08:36:21.170Z,95.10
2023-05-01T08:38:47.870Z,95.10
2023-05-01T08:41:14.448Z,95.50
2023-05-01T08:43:41.256Z,95.30
2023-05-01T08:46:08.272Z,95.90
2023-05-01T08:48:34.907Z,94.90
2023-05-01T08:51:02.204Z,94.30
2023-05-01T08:53:29.294Z,93.50
2023-05-01T08:55:56.650Z,93.00
2023-05-01T08:58:23.272Z,92.70
2023-05-01T09:00:50.399Z,93.30
2023-05-01T09:03:18.069Z,92.20
2023-05-01T09:05:45.451Z,93.00
2023-05-01T09:08:12.080Z,92.00
2023-05-01T09:10:38.663Z,92.40
2023-05-01T09:13:07.128Z,92.30
2023-05-01T09:15:33.898Z,92.00
2023-05-01T09:18:03.532Z,91.10
2023-05-01T09:20:30.923Z,92.40
2023-05-01T09:22:57.754Z,91.40
2023-05-01T09:25:24.523Z,91.60
2023-05-01T09:27:51.086Z,91.80
2023-05-01T09:30:17.792Z,92.30
2023-05-01T09:32:44.436Z,93.10
2023-05-01T09:35:11.339Z,90.60
2023-05-01T09:37:38.045Z,91.90
2023-05-01T09:40:04.654Z,90.30
2023-05-01T09:42:34.341Z,88.40
2023-05-01T09:45:01.687Z,89.80
2023-05-01T09:47:28.691Z,90.80
2023-05-01T09:49:55.508Z,87.40
2023-05-01T09:52:22.270Z,90.20
2023-05-01T09:54:48.864Z,82.50
2023-05-01T09:57:15.530Z,78.20
2023-05-01T09:59:42.198Z,82.00
2023-05-01T10:02:08.864Z,78.00
2023-05-01T10:04:35.562Z,76.50
2023-05-01T10:07:02.503Z,76.20
2023-05-01T10:09:29.259Z,77.80
2023-05-01T10:11:57.285Z,80.30
2023-05-01T10:14:25.006Z,77.00
2023-05-01T10:16:56.370Z,75.60
2023-05-01T10:19:23.266Z,75.70
2023-05-01T10:21:49.997Z,74.60
2023-05-01T10:24:17.310Z,75.60
2023-05-01T10:26:44.104Z,73.60
2023-05-01T10:29:10.817Z,76.50
2023-05-01T10:31:38.203Z,77.20
2023-05-01T10:34:06.234Z,77.20
2023-05-01T10:36:33.260Z,77.10
2023-05-01T10:39:00.489Z,77.20
2023-05-01T10:41:27.216Z,75.70
2023-05-01T10:43:53.808Z,75.20
2023-05-01T10:46:20.967Z,75.00
2023-05-01T10:48:47.571Z,74.80
2023-05-01T10:51:14.326Z,74.30
2023-05-01T10:53:40.989Z,76.00
2023-05-01T10:56:07.573Z,76.10
2023-05-01T10:58:34.142Z,77.40
2023-05-01T11:01:00.672Z,76.40
2023-05-01T11:03:27.226Z,78.00
2023-05-01T11:05:53.800Z,78.60
2023-05-01T11:08:21.014Z,79.20
2023-05-01T11:10:47.634Z,79.40
2023-05-01T11:13:14.245Z,80.00
2023-05-01T11:15:41.323Z,77.90
2023-05-01T11:18:08.079Z,79.60
2023-05-01T11:20:34.871Z,79.00
2023-05-01T11:23:01.605Z,78.60
2023-05-01T11:25:28.243Z,78.10
2023-05-01T11:27:54.961Z,78.30
2023-05-01T11:30:21.600Z,79.30
2023-05-01T11:32:48.201Z,81.30
2023-05-01T11:35:14.768Z,81.80
2023-05-01T11:37:41.344Z,84.50
2023-05-01T11:40:07.917Z,80.70
2023-05-01T11:42:34.517Z,80.60
2023-05-01T11:45:01.122Z,78.90
2023-05-01T11:47:27.731Z,80.60
2023-05-01T11:49:54.563Z,80.00
2023-05-01T11:52:21.286Z,78.40
2023-05-01T11:54:48.352Z,76.70
2023-05-01T11:57:14.947Z,79.00
2023-05-01T11:59:42.319Z,81.50
2023-05-01T12:02:08.977Z,78.80
2023-05-01T12:04:35.720Z,80.00
2023-05-01T12:07:02.573Z,81.50
2023-05-01T12:09:29.157Z,80.70
2023-05-01T12:11:55.852Z,80.80
2023-05-01T12:14:24.220Z,79.90
2023-05-01T12:16:50.811Z,77.30
2023-05-01T12:19:18.046Z,77.20
2023-05-01T12:21:44.777Z,77.40
2023-05-01T12:24:11.366Z,80.00
2023-05-01T12:26:38.102Z,78.20
2023-05-01T12:29:04.742Z,78.20
2023-05-01T12:31:31.580Z,75.30
2023-05-01T12:33:58.387Z,76.70
2023-05-01T12:36:25.564Z,76.10
2023-05-01T12:38:52.347Z,79.30
2023-05-01T12:41:19.291Z,81.70
2023-05-01T12:43:46.686Z,81.30
2023-05-01T12:46:13.336Z,79.80
2023-05-01T12:48:39.966Z,78.80
2023-05-01T12:51:06.694Z,80.20
2023-05-01T12:53:33.393Z,80.00
2023-05-01T12:56:01.188Z,81.50
2023-05-01T12:58:29.065Z,80.70
2023-05-01T13:00:56.132Z,79.70
2023-05-01T13:03:22.946Z,81.10
2023-05-01T13:05:49.543Z,78.90
2023-05-01T13:08:16.243Z,79.50
2023-05-01T13:10:43.243Z,78.00
2023-05-01T13:13:09.823Z,79.90
2023-05-01T13:15:37.482Z,77.50
2023-05-01T13:18:05.223Z,76.70
2023-05-01T13:20:32.274Z,77.30
2023-05-01T13:22:58.898Z,76.70
2023-05-01T13:25:25.469Z,77.30
2023-05-01T13:27:52.381Z,77.20
2023-05-01T13:30:19.891Z,77.60
2023-05-01T13:32:46.517Z,76.10
2023-05-01T13:35:13.058Z,76.30
2023-05-01T13:37:39.836Z,75.80
2023-05-01T13:40:06.458Z,75.90
2023-05-01T13:42:33.029Z,78.00
2023-05-01T13:44:59.965Z,77.30
2023-05-01T13:47:27.016Z,78.10
2023-05-01T13:49:53.801Z,77.40
2023-05-01T13:52:20.333Z,77.30
2023-05-01T13:54:46.891Z,77.70
2023-05-01T13:57:13.442Z,79.40
2023-05-01T13:59:40.189Z,77.30
2023-05-01T14:02:06.763Z,76.60
2023-05-01T14:04:33.295Z,76.40
2023-05-01T14:07:01.204Z,78.20
2023-05-01T14:09:27.722Z,77.90
2023-05-01T14:11:54.623Z,78.10
2023-05-01T14:14:21.135Z,73.30
2023-05-01T14:16:47.766Z,73.60
2023-05-01T14:19:14.357Z,72.30
2023-05-01T14:21:41.626Z,73.40
2023-05-01T14:24:08.171Z,71.30
2023-05-01T14:26:36.577Z,71.70
2023-05-01T14:29:03.814Z,72.00
2023-05-01T14:31:31.089Z,75.80
2023-05-01T14:33:57.794Z,74.10
2023-05-01T14:36:24.739Z,74.20
2023-05-01T14:38:51.696Z,75.50
2023-05-01T14:41:21.687Z,75.30
2023-05-01T14:43:51.094Z,76.00
2023-05-01T14:46:17.731Z,72.20
2023-05-01T14:48:44.365Z,74.60
2023-05-01T14:51:11.230Z,75.00
2023-05-01T14:53:37.753Z,75.30
2023-05-01T14:56:04.288Z,72.20
2023-05-01T14:58:31.119Z,72.90
2023-05-01T15:00:58.031Z,74.30
2023-05-01T15:03:24.600Z,75.00
2023-05-01T15:05:51.181Z,75.80
2023-05-01T15:08:17.724Z,74.90
2023-05-01T15:10:45.028Z,74.00
2023-05-01T15:13:11.597Z,73.20
2023-05-01T15:15:38.127Z,75.70
2023-05-01T15:18:04.761Z,74.40
2023-05-01T15:20:31.345Z,75.60
2023-05-01T15:22:57.892Z,75.80
2023-05-01T15:25:24.496Z,76.20
2023-05-01T15:27:51.404Z,76.10
2023-05-01T15:30:17.925Z,77.20
2023-05-01T15:32:44.757Z,76.50
2023-05-01T15:35:11.437Z,77.80
2023-05-01T15:37:38.153Z,78.60
2023-05-01T15:40:04.738Z,78.90
2023-05-01T15:42:31.475Z,77.80
2023-05-01T15:44:58.316Z,77.90
2023-05-01T15:47:25.146Z,78.10
2023-05-01T15:49:51.708Z,78.70
2023-05-01T15:52:18.254Z,79.30
2023-05-01T15:54:44.745Z,78.90
2023-05-01T15:57:11.342Z,78.30
2023-05-01T15:59:37.853Z,79.40
2023-05-01T16:02:04.854Z,81.00
2023-05-01T16:04:31.565Z,80.50
2023-05-01T16:06:58.099Z,80.60
2023-05-01T16:09:24.665Z,81.00
2023-05-01T16:11:51.619Z,81.40
2023-05-01T16:14:18.226Z,79.90
2023-05-01T16:16:44.898Z,81.20
2023-05-01T16:19:11.897Z,78.80
2023-05-01T16:21:38.403Z,79.10
2023-05-01T16:24:06.104Z,79.80
2023-05-01T16:26:32.709Z,79.80
2023-05-01T16:28:59.290Z,78.80
2023-05-01T16:31:27.514Z,78.20
2023-05-01T16:33:54.807Z,77.40
2023-05-01T16:36:21.634Z,76.80
2023-05-01T16:38:48.300Z,77.40
2023-05-01T16:41:14.883Z,76.80
2023-05-01T16:43:41.534Z,78.30
2023-05-01T16:46:08.088Z,80.70
2023-05-01T16:48:34.634Z,83.30
2023-05-01T16:51:01.206Z,85.00
2023-05-01T16:53:27.797Z,86.70
2023-05-01T16:55:54.403Z,88.00
2023-05-01T16:58:20.970Z,89.40
2023-05-01T17:00:47.537Z,90.50
2023-05-01T17:03:14.122Z,91.00
2023-05-01T17:05:40.776Z,91.40
2023-05-01T17:08:07.505Z,92.00
2023-05-01T17:10:34.139Z,92.70
2023-05-01T17:13:00.977Z,93.50
2023-05-01T17:15:27.646Z,93.90
2023-05-01T17:17:54.317Z,94.60
2023-05-01T17:20:21.237Z,95.60
2023-05-01T17:22:47.833Z,96.20
2023-05-01T17:25:14.424Z,96.90
2023-05-01T17:27:41.018Z,97.40
2023-05-01T17:30:07.569Z,98.20
2023-05-01T17:32:37.379Z,99.10
2023-05-01T17:35:04.554Z,99.70
2023-05-01T17:37:31.178Z,99.90
2023-05-01T17:39:58.121Z,99.90
2023-05-01T17:42:24.922Z,99.90
2023-05-01T17:44:51.429Z,99.90
2023-05-01T17:47:17.966Z,99.90
2023-05-01T17:49:44.550Z,99.90
2023-05-01T17:52:12.221Z,99.90
2023-05-01T17:54:38.986Z,99.90
2023-05-01T17:57:05.651Z,99.90
2023-05-01T17:59:32.387Z,99.90
2023-05-01T18:01:59.256Z,99.90
2023-05-01T18:04:26.249Z,99.90
2023-05-01T18:06:54.093Z,99.90
2023-05-01T18:09:20.882Z,99.90
2023-05-01T18:11:47.494Z,99.90
2023-05-01T18:14:14.575Z,99.90
2023-05-01T18:16:41.981Z,99.90
2023-05-01T18:19:08.639Z,99.90
2023-05-01T18:21:35.454Z,99.90
2023-05-01T18:24:05.314Z,99.90
2023-05-01T18:26:32.860Z,99.90
2023-05-01T18:28:59.620Z,99.90
2023-05-01T18:31:26.765Z,99.90
2023-05-01T18:33:53.899Z,99.90
2023-05-01T18:36:21.019Z,99.90
2023-05-01T18:38:48.088Z,99.90
2023-05-01T18:41:14.743Z,99.90
2023-05-01T18:43:41.318Z,99.90
2023-05-01T18:46:07.952Z,99.90
2023-05-01T18:48:34.486Z,99.90
2023-05-01T18:51:08.433Z,99.90
2023-05-01T18:53:36.054Z,99.90
2023-05-01T18:56:02.666Z,99.90
2023-05-01T18:58:29.253Z,99.90
2023-05-01T19:00:55.914Z,99.90
2023-05-01T19:03:22.618Z,99.90
2023-05-01T19:05:49.408Z,99.90
2023-05-01T19:08:15.933Z,99.90
2023-05-01T19:10:42.498Z,99.90
2023-05-01T19:13:09.097Z,99.90
2023-05-01T19:15:36.248Z,99.90
2023-05-01T19:18:02.861Z,99.90
2023-05-01T19:20:29.513Z,99.90
2023-05-01T19:22:56.050Z,99.90
2023-05-01T19:25:22.589Z,99.90
2023-05-01T19:27:50.913Z,99.90
2023-05-01T19:30:17.765Z,99.90
2023-05-01T19:32:44.294Z,99.90
2023-05-01T19:35:11.578Z,99.90
2023-05-01T19:37:38.208Z,99.90
2023-05-01T19:40:04.817Z,99.90
2023-05-01T19:42:31.583Z,99.90
2023-05-01T19:44:58.229Z,99.90
2023-05-01T19:47:24.807Z,99.90
2023-05-01T19:49:51.355Z,99.90
2023-05-01T19:52:19.423Z,99.90
2023-05-01T19:54:45.979Z,99.90
2023-05-01T19:57:12.929Z,99.90
2023-05-01T19:59:41.166Z,99.90
2023-05-01T20:02:07.933Z,99.90
2023-05-01T20:04:34.585Z,99.90
2023-05-01T20:07:02.733Z,99.90
2023-05-01T20:09:29.283Z,99.90
2023-05-01T20:11:55.866Z,99.90
2023-05-01T20:14:22.385Z,99.90
2023-05-01T20:16:50.420Z,99.90
2023-05-01T20:19:17.727Z,99.90
2023-05-01T20:21:44.393Z,99.90
2023-05-01T20:24:11.240Z,99.90
2023-05-01T20:26:37.754Z,99.90
2023-05-01T20:29:04.289Z,99.90
2023-05-01T20:31:31.378Z,99.90
2023-05-01T20:33:58.015Z,99.90
2023-05-01T20:36:25.667Z,99.90
2023-05-01T20:38:53.134Z,99.90
2023-05-01T20:41:19.793Z,99.90
2023-05-01T20:43:46.401Z,99.90
2023-05-01T20:46:13.414Z,99.90
2023-05-01T20:48:40.063Z,99.90
2023-05-01T20:51:06.646Z,99.90
2023-05-01T20:53:33.351Z,99.90
2023-05-01T20:56:00.026Z,99.90
2023-05-01T20:58:26.538Z,99.90
2023-05-01T21:00:53.252Z,99.90
2023-05-01T21:03:19.840Z,99.90
2023-05-01T21:05:46.449Z,99.90
2023-05-01T21:08:13.063Z,99.90
2023-05-01T21:10:39.567Z,99.90
2023-05-01T21:13:06.291Z,99.90
2023-05-01T21:15:33.846Z,99.90
2023-05-01T21:18:00.774Z,99.90
2023-05-01T21:20:27.687Z,99.90
2023-05-01T21:22:54.234Z,99.90
2023-05-01T21:25:20.810Z,99.90
2023-05-01T21:27:47.379Z,99.90
2023-05-01T21:30:14.874Z,99.90
2023-05-01T21:32:41.526Z,99.90
2023-05-01T21:35:08.645Z,99.90
2023-05-01T21:37:35.210Z,99.90
2023-05-01T21:40:02.089Z,99.90
2023-05-01T21:42:28.795Z,99.90
2023-05-01T21:44:55.375Z,99.90
2023-05-01T21:47:21.981Z,99.90
2023-05-01T21:49:48.586Z,99.90
2023-05-01T21:52:15.329Z,99.90
2023-05-01T21:54:41.899Z,99.90
2023-05-01T21:57:08.444Z,99.90
2023-05-01T21:59:34.980Z,99.90
2023-05-01T22:02:01.517Z,99.90
2023-05-01T22:04:28.005Z,99.90
2023-05-01T22:06:54.885Z,99.90
2023-05-01T22:09:21.430Z,99.90
2023-05-01T22:11:47.964Z,99.90
2023-05-01T22:14:15.677Z,99.90
2023-05-01T22:16:42.279Z,99.90
2023-05-01T22:19:08.807Z,99.90
2023-05-01T22:21:35.481Z,99.90
2023-05-01T22:24:02.862Z,99.90
2023-05-01T22:26:29.668Z,99.90
2023-05-01T22:28:56.545Z,99.90
2023-05-01T22:31:23.442Z,99.90
2023-05-01T22:33:50.137Z,99.90
2023-05-01T22:36:16.667Z,99.90
2023-05-01T22:38:43.228Z,99.90
2023-05-01T22:41:10.078Z,99.90
2023-05-01T22:43:36.606Z,99.90
2023-05-01T22:46:05.772Z,99.90
2023-05-01T22:48:32.474Z,99.90
2023-05-01T22:50:59.437Z,99.90
2023-05-01T22:53:27.391Z,99.90
2023-05-01T22:55:54.341Z,99.90
2023-05-01T22:58:21.024Z,99.90
2023-05-01T23:00:47.532Z,99.90
2023-05-01T23:03:15.334Z,99.90
2023-05-01T23:05:42.003Z,99.90
2023-05-01T23:08:08.484Z,99.90
2023-05-01T23:10:35.129Z,99.90
2023-05-01T23:13:01.739Z,99.90
2023-05-01T23:15:28.293Z,99.90
2023-05-01T23:17:55.034Z,99.90
2023-05-01T23:20:22.493Z,99.90
2023-05-01T23:22:49.194Z,99.90
2023-05-01T23:25:15.927Z,99.90
2023-05-01T23:27:42.904Z,99.90
2023-05-01T23:30:09.442Z,99.90
2023-05-01T23:32:36.116Z,99.90
2023-05-01T23:35:02.853Z,99.90
2023-05-01T23:37:29.434Z,99.90
2023-05-01T23:39:58.608Z,99.90
2023-05-01T23:42:25.785Z,99.90
2023-05-01T23:44:52.336Z,99.90
2023-05-01T23:47:19.223Z,99.90
2023-05-01T23:49:45.820Z,99.90
2023-05-01T23:52:12.565Z,99.90
2023-05-01T23:54:39.188Z,99.90
2023-05-01T23:57:05.715Z,99.90
2023-05-01T23:59:32.301Z,99.90
